Time;durP1;ratioP1;P1;durP2;ratioP2;P2;SDS_P1;SDS_P2;PMS_P1;PMS_P2;Temp;Humidity;BMP_temperature;BMP_pressure;BME280_temperature;BME280_humidity;BME280_pressure;Samples;Min_cycle;Max_cycle;Signal;HPM_P1;HPM_P2
2023/02/12 00:02:22;;;;;;;8.80;7.32;;;;;;;6.80;100.00;103871.13;5037692;28;20108;-73
2023/02/12 00:04:47;;;;;;;11.15;7.47;;;;;;;6.81;100.00;103869.44;5046406;28;20038;-73
2023/02/12 00:07:13;;;;;;;7.90;6.93;;;;;;;6.81;100.00;103875.50;5039084;28;20057;-73
2023/02/12 00:09:38;;;;;;;7.88;6.88;;;;;;;6.81;100.00;103866.81;5033455;28;20307;-73
2023/02/12 00:12:04;;;;;;;7.95;6.70;;;;;;;6.81;100.00;103869.44;5044595;28;20069;-73
2023/02/12 00:14:29;;;;;;;7.90;7.10;;;;;;;6.81;100.00;103872.03;5046259;28;20052;-73
2023/02/12 00:16:54;;;;;;;8.05;7.10;;;;;;;6.80;100.00;103873.75;5044328;28;20048;-73
2023/02/12 00:19:20;;;;;;;12.43;7.20;;;;;;;6.79;100.00;103866.78;5040922;28;20316;-73
2023/02/12 00:21:45;;;;;;;7.53;6.53;;;;;;;6.80;100.00;103870.25;5050244;28;20075;-73
2023/02/12 00:24:11;;;;;;;8.00;6.60;;;;;;;6.79;100.00;103873.72;5050463;28;20033;-73
2023/02/12 00:26:36;;;;;;;10.13;7.85;;;;;;;6.79;100.00;103878.94;5042858;28;20037;-73
2023/02/12 00:29:02;;;;;;;9.10;6.90;;;;;;;6.78;100.00;103877.16;5042150;28;20377;-73
2023/02/12 00:31:29;;;;;;;8.40;7.50;;;;;;;6.77;100.00;103871.09;5042012;28;20063;-73
2023/02/12 00:33:55;;;;;;;9.23;7.20;;;;;;;6.76;100.00;103871.91;5038176;28;20025;-73
2023/02/12 00:36:23;;;;;;;8.00;7.20;;;;;;;6.77;100.00;103872.78;5039325;28;20045;-73
2023/02/12 00:38:51;;;;;;;8.80;7.82;;;;;;;6.77;100.00;103875.38;5044512;28;20021;-73
2023/02/12 00:41:17;;;;;;;9.80;7.45;;;;;;;6.77;100.00;103868.47;5048456;28;20048;-73
2023/02/12 00:43:42;;;;;;;9.38;7.50;;;;;;;6.78;100.00;103874.56;5044138;28;20030;-73
2023/02/12 00:46:07;;;;;;;7.85;7.13;;;;;;;6.78;100.00;103869.34;5056898;28;20037;-73
2023/02/12 00:48:34;;;;;;;7.18;6.47;;;;;;;6.78;100.00;103871.94;5048925;28;20044;-73
2023/02/12 00:51:00;;;;;;;8.00;7.18;;;;;;;6.77;100.00;103867.56;5042858;28;20069;-73
2023/02/12 00:53:25;;;;;;;8.35;6.85;;;;;;;6.76;100.00;103864.09;5043380;28;20056;-73
2023/02/12 00:55:51;;;;;;;6.45;5.78;;;;;;;6.77;100.00;103867.56;5045177;28;20041;-73
2023/02/12 00:58:16;;;;;;;7.30;6.60;;;;;;;6.76;100.00;103868.44;5045195;28;20061;-73
2023/02/12 01:00:42;;;;;;;7.47;6.72;;;;;;;6.77;100.00;103870.19;5044699;28;20083;-73
2023/02/12 01:03:08;;;;;;;6.70;6.10;;;;;;;6.76;100.00;103863.22;5052767;28;20045;-73
2023/02/12 01:05:33;;;;;;;9.52;5.88;;;;;;;6.75;100.00;103864.97;5055738;28;20092;-73
2023/02/12 01:07:59;;;;;;;7.40;6.35;;;;;;;6.74;100.00;103860.56;5052546;28;20049;-73
2023/02/12 01:10:25;;;;;;;7.22;6.45;;;;;;;6.75;100.00;103858.84;5050907;28;20037;-73
2023/02/12 01:12:50;;;;;;;7.70;6.88;;;;;;;6.75;100.00;103867.56;5049840;28;20056;-73
2023/02/12 01:15:16;;;;;;;7.75;7.05;;;;;;;6.73;100.00;103864.91;5053567;28;20029;-73
2023/02/12 01:17:42;;;;;;;6.78;6.07;;;;;;;6.73;100.00;103861.41;5044995;28;20017;-73
2023/02/12 01:20:11;;;;;;;7.15;6.13;;;;;;;6.73;100.00;103864.91;5044888;28;20108;-73
2023/02/12 01:22:38;;;;;;;6.13;5.63;;;;;;;6.73;100.00;103866.63;5043647;28;20368;-73
2023/02/12 01:25:05;;;;;;;6.93;6.32;;;;;;;6.73;100.00;103864.91;5045221;28;20131;-73
2023/02/12 01:27:30;;;;;;;6.50;5.93;;;;;;;6.73;100.00;103864.91;5041714;28;20215;-73
2023/02/12 01:29:56;;;;;;;7.75;6.20;;;;;;;6.73;100.00;103869.22;5046596;28;20040;-73
2023/02/12 01:32:21;;;;;;;6.25;5.65;;;;;;;6.73;100.00;103870.13;5039295;28;20075;-73
2023/02/12 01:34:47;;;;;;;5.90;5.30;;;;;;;6.71;100.00;103864.00;5043005;28;20124;-73
2023/02/12 01:37:12;;;;;;;5.70;5.30;;;;;;;6.71;100.00;103858.78;5037012;28;20217;-73
2023/02/12 01:39:38;;;;;;;6.38;5.80;;;;;;;6.72;100.00;103859.66;5040986;28;20359;-73
2023/02/12 01:42:03;;;;;;;5.85;5.35;;;;;;;6.70;100.00;103859.63;5054061;28;20037;-73
2023/02/12 01:44:31;;;;;;;6.15;5.65;;;;;;;6.71;100.00;103858.78;5052126;28;20328;-73
2023/02/12 01:47:00;;;;;;;7.18;5.72;;;;;;;6.70;100.00;103859.63;5057128;28;20359;-73
2023/02/12 01:49:35;;;;;;;7.10;6.43;;;;;;;6.69;100.00;103860.50;5050013;28;20043;-73
2023/02/12 01:52:06;;;;;;;7.60;5.88;;;;;;;6.70;100.00;103875.25;5047191;28;20292;-73
2023/02/12 01:54:34;;;;;;;6.05;5.45;;;;;;;6.69;100.00;103870.91;5042807;28;20060;-73
2023/02/12 01:57:01;;;;;;;6.50;5.85;;;;;;;6.69;100.00;103862.19;5056522;28;20366;-73
2023/02/12 01:59:28;;;;;;;6.18;5.65;;;;;;;6.68;100.00;103868.25;5045357;28;20025;-73
2023/02/12 02:04:56;;;;;;;5.47;5.05;;;;;;;6.68;100.00;103876.06;5040409;28;20262;-73
2023/02/12 02:07:23;;;;;;;7.15;5.38;;;;;;;6.67;100.00;103877.78;5051498;28;20119;-73
2023/02/12 02:09:49;;;;;;;6.72;5.63;;;;;;;6.67;100.00;103874.31;5059709;28;20228;-73
2023/02/12 02:15:01;;;;;;;6.20;5.60;;;;;;;6.65;100.00;103870.78;5026209;28;20111;-73
2023/02/12 02:17:57;;;;;;;5.97;5.47;;;;;;;6.65;100.00;103869.06;5039754;28;20038;-73
2023/02/12 02:20:49;;;;;;;5.88;5.43;;;;;;;6.65;100.00;103873.38;5059353;28;20038;-73
2023/02/12 02:23:53;;;;;;;6.45;5.43;;;;;;;6.64;100.00;103875.13;5052551;28;20049;-73
2023/02/12 02:26:46;;;;;;;5.72;5.18;;;;;;;6.64;100.00;103882.03;5009085;28;20071;-73
2023/02/12 02:29:45;;;;;;;6.07;5.57;;;;;;;6.64;100.00;103871.59;5051454;28;20037;-73
2023/02/12 02:32:24;;;;;;;7.03;6.10;;;;;;;6.63;100.00;103873.34;5051610;28;20037;-73
2023/02/12 02:35:15;;;;;;;5.95;5.38;;;;;;;6.63;100.00;103868.13;5053168;28;20324;-73
2023/02/12 02:38:18;;;;;;;5.43;4.95;;;;;;;6.63;100.00;103872.47;5059795;28;20275;-73
2023/02/12 02:40:54;;;;;;;6.00;5.40;;;;;;;6.62;100.00;103871.59;4988007;28;20041;-73
2023/02/12 02:43:27;;;;;;;5.55;5.05;;;;;;;6.61;100.00;103875.03;5043743;28;20332;-73
2023/02/12 02:45:58;;;;;;;6.75;5.50;;;;;;;6.60;100.00;103868.06;5047232;28;20370;-73
2023/02/12 02:48:31;;;;;;;6.50;5.75;;;;;;;6.61;100.00;103866.34;5041042;28;20264;-73
2023/02/12 02:51:02;;;;;;;5.20;4.80;;;;;;;6.61;100.00;103861.16;5048172;28;20295;-73
2023/02/12 02:53:40;;;;;;;5.50;4.97;;;;;;;6.60;100.00;103861.97;5059024;28;20279;-73
2023/02/12 02:56:11;;;;;;;5.88;5.40;;;;;;;6.60;100.00;103865.44;5045128;28;20033;-73
2023/02/12 02:58:49;;;;;;;5.75;5.35;;;;;;;6.60;100.00;103868.06;5038877;28;20026;-73
2023/02/12 03:01:30;;;;;;;5.90;5.50;;;;;;;6.59;100.00;103855.03;5052762;28;20067;-73
2023/02/12 03:04:04;;;;;;;5.88;5.32;;;;;;;6.60;100.00;103854.16;5038400;28;20036;-73
2023/02/12 03:06:43;;;;;;;5.68;5.22;;;;;;;6.60;100.00;103857.63;5053927;28;20048;-73
2023/02/12 03:09:18;;;;;;;5.47;4.95;;;;;;;6.60;100.00;103860.25;5059252;28;20045;-73
2023/02/12 03:11:45;;;;;;;5.95;5.35;;;;;;;6.59;100.00;103855.88;5041312;28;20036;-73
2023/02/12 03:14:23;;;;;;;5.63;5.15;;;;;;;6.60;100.00;103859.38;5038854;28;20037;-73
2023/02/12 03:16:56;;;;;;;;;;;;;;;6.59;100.00;103858.50;5057754;28;20029;-73
2023/02/12 03:19:29;;;;;;;5.63;5.22;;;;;;;6.59;100.00;103855.88;5058464;28;19908;-73
2023/02/12 03:22:01;;;;;;;5.20;4.80;;;;;;;6.58;100.00;103856.72;5039115;28;20041;-73
2023/02/12 03:24:34;;;;;;;5.75;5.25;;;;;;;6.58;100.00;103855.84;5038497;28;20029;-73
2023/02/12 03:27:06;;;;;;;5.18;4.78;;;;;;;6.57;100.00;103852.38;5059043;28;20040;-73
2023/02/12 03:29:31;;;;;;;5.50;5.10;;;;;;;6.56;100.00;103853.19;5058457;28;20037;-73
2023/02/12 03:32:21;;;;;;;5.50;5.10;;;;;;;6.55;100.00;103848.84;5039396;28;20099;-73
2023/02/12 03:35:14;;;;;;;6.00;5.50;;;;;;;6.56;100.00;103849.72;5040169;28;20040;-73
2023/02/12 03:37:55;;;;;;;5.97;5.43;;;;;;;6.55;100.00;103859.28;5057911;28;20048;-73
2023/02/12 03:40:45;;;;;;;5.90;5.40;;;;;;;6.53;100.00;103848.81;5057224;28;20352;-73
2023/02/12 03:43:26;;;;;;;5.45;5.00;;;;;;;6.53;100.00;103848.81;5038909;28;20067;-73
2023/02/12 03:45:51;;;;;;;5.95;5.43;;;;;;;6.53;100.00;103846.22;5048972;28;20283;-73
2023/02/12 03:48:53;;;;;;;5.57;5.18;;;;;;;6.53;100.00;103838.41;5058321;28;20041;-73
2023/02/12 03:51:26;;;;;;;5.47;4.97;;;;;;;6.52;100.00;103852.25;5038477;28;20048;-74
2023/02/12 03:53:51;;;;;;;5.05;4.75;;;;;;;6.52;100.00;103851.38;5058614;28;20040;-75
2023/02/12 03:56:22;;;;;;;6.60;5.25;;;;;;;6.52;100.00;103856.59;5044817;28;20036;-75
2023/02/12 03:58:48;;;;;;;5.40;5.03;;;;;;;6.52;100.00;103861.78;5038363;28;20249;-75
2023/02/12 04:01:13;;;;;;;5.80;5.30;;;;;;;6.52;100.00;103860.06;5050043;28;20103;-75
2023/02/12 04:03:40;;;;;;;5.88;5.47;;;;;;;6.51;100.00;103847.91;5044044;28;20029;-75
2023/02/12 04:06:22;;;;;;;6.38;5.78;;;;;;;6.51;100.00;103858.31;5039297;28;20049;-75
2023/02/12 04:08:48;;;;;;;6.30;5.80;;;;;;;6.52;100.00;103856.59;5049421;28;20048;-75
2023/02/12 04:11:41;;;;;;;7.93;5.22;;;;;;;6.51;100.00;103860.91;5038642;28;20088;-75
2023/02/12 04:14:25;;;;;;;5.88;5.47;;;;;;;6.52;100.00;103867.00;5058311;28;20037;-75
2023/02/12 04:17:08;;;;;;;5.63;5.13;;;;;;;6.51;100.00;103867.81;5042103;28;20037;-75
2023/02/12 04:20:00;;;;;;;5.85;5.35;;;;;;;6.51;100.00;103873.03;5043684;28;20101;-75
2023/02/12 04:22:53;;;;;;;5.53;5.13;;;;;;;6.49;100.00;103877.31;5053954;28;20045;-75
2023/02/12 04:25:42;;;;;;;6.22;5.72;;;;;;;6.49;100.00;103874.72;5053367;28;20332;-75
2023/02/12 04:28:32;;;;;;;5.07;4.78;;;;;;;6.49;100.00;103879.94;5041813;28;20096;-75
2023/02/12 04:31:04;;;;;;;6.05;5.60;;;;;;;6.49;100.00;103883.44;5054949;28;20063;-75
2023/02/12 04:34:01;;;;;;;6.63;5.72;;;;;;;6.49;100.00;103891.25;5059725;28;20040;-75
2023/02/12 04:36:37;;;;;;;5.70;5.20;;;;;;;6.48;100.00;103894.69;5043855;28;20045;-75
2023/02/12 04:39:15;;;;;;;5.45;5.05;;;;;;;6.49;100.00;103898.16;5042116;28;20048;-75
2023/02/12 04:41:40;;;;;;;5.78;5.35;;;;;;;6.47;100.00;103898.13;5060375;28;20252;-75
2023/02/12 04:44:20;;;;;;;6.18;5.45;;;;;;;6.47;100.00;103903.31;5060288;28;20052;-75
2023/02/12 04:46:45;;;;;;;5.82;5.40;;;;;;;6.47;100.00;103895.50;5061316;28;20394;-75
2023/02/12 04:49:16;;;;;;;6.57;6.03;;;;;;;6.46;100.00;103898.97;5041573;28;20041;-75
2023/02/12 04:51:42;;;;;;;5.68;5.28;;;;;;;6.46;100.00;103891.16;5041754;28;20064;-75
2023/02/12 04:54:08;;;;;;;6.65;6.05;;;;;;;6.46;100.00;103895.50;5060867;28;20039;-75
2023/02/12 04:56:33;;;;;;;6.80;6.20;;;;;;;6.46;100.00;103903.31;5059903;28;20472;-75
2023/02/12 04:58:59;;;;;;;6.63;6.07;;;;;;;6.46;100.00;103906.78;5041510;28;20045;-75
2023/02/12 05:01:24;;;;;;;6.43;5.75;;;;;;;6.46;100.00;103892.91;5040986;28;20099;-75
2023/02/12 05:03:53;;;;;;;7.13;6.13;;;;;;;6.45;100.00;103897.19;5041778;28;20045;-75
2023/02/12 05:06:18;;;;;;;6.97;6.35;;;;;;;6.45;100.00;103896.31;5040999;28;20052;-75
2023/02/12 05:08:43;;;;;;;6.30;5.70;;;;;;;6.44;100.00;103898.06;5059369;28;20041;-75
2023/02/12 05:11:10;;;;;;;6.80;6.00;;;;;;;6.44;100.00;103887.66;5061208;28;20078;-75
2023/02/12 05:13:36;;;;;;;6.53;5.93;;;;;;;6.44;100.00;103892.84;5044180;28;20368;-75
2023/02/12 05:16:06;;;;;;;6.22;5.50;;;;;;;6.45;100.00;103891.13;5041502;28;20088;-75
2023/02/12 05:18:33;;;;;;;5.97;5.55;;;;;;;6.44;100.00;103887.66;5058402;28;20068;-75
2023/02/12 05:21:00;;;;;;;6.45;5.85;;;;;;;6.43;100.00;103887.59;5056977;28;20040;-75
2023/02/12 05:23:27;;;;;;;6.15;5.65;;;;;;;6.43;100.00;103885.88;5043784;28;20036;-75
2023/02/12 05:25:53;;;;;;;6.68;6.00;;;;;;;6.42;100.00;103881.53;5060687;28;20029;-75
2023/02/12 05:28:19;;;;;;;6.30;5.70;;;;;;;6.42;100.00;103886.72;5051418;28;20044;-75
2023/02/12 05:30:44;;;;;;;6.45;5.85;;;;;;;6.42;100.00;103891.03;5041234;28;20037;-75
2023/02/12 05:33:09;;;;;;;6.40;5.90;;;;;;;6.41;100.00;103890.16;5040923;28;20052;-75
2023/02/12 05:35:35;;;;;;;6.13;5.65;;;;;;;6.41;100.00;103892.75;5040926;28;20045;-75
2023/02/12 05:38:00;;;;;;;6.38;5.78;;;;;;;6.42;100.00;103888.44;5045067;28;20236;-75
2023/02/12 05:40:26;;;;;;;6.18;5.68;;;;;;;6.40;100.00;103888.38;5060458;28;20079;-75
2023/02/12 05:42:51;;;;;;;6.50;6.00;;;;;;;6.41;100.00;103890.16;5058283;28;20101;-75
2023/02/12 05:45:16;;;;;;;6.30;5.75;;;;;;;6.40;100.00;103888.38;5040418;28;20048;-75
2023/02/12 05:47:42;;;;;;;6.70;6.10;;;;;;;6.40;100.00;103888.38;5041419;28;20049;-75
2023/02/12 05:50:07;;;;;;;7.03;6.30;;;;;;;6.39;100.00;103889.25;5060823;28;20064;-75
2023/02/12 05:52:33;;;;;;;6.38;5.78;;;;;;;6.38;100.00;103895.28;5060030;28;20032;-75
2023/02/12 05:54:58;;;;;;;6.70;6.07;;;;;;;6.38;100.00;103894.41;5041629;28;20348;-75
2023/02/12 05:57:24;;;;;;;6.53;6.00;;;;;;;6.38;100.00;103908.28;5040047;28;20049;-75
2023/02/12 05:59:49;;;;;;;6.82;6.22;;;;;;;6.38;100.00;103903.09;5057640;28;20287;-75
2023/02/12 06:02:14;;;;;;;6.78;6.28;;;;;;;6.38;100.00;103894.41;5051413;28;20053;-75
2023/02/12 06:04:40;;;;;;;6.60;6.10;;;;;;;6.38;100.00;103903.09;5040646;28;20037;-75
2023/02/12 06:07:06;;;;;;;6.63;6.13;;;;;;;6.37;100.00;103893.53;5058727;28;20060;-75
2023/02/12 06:09:32;;;;;;;6.63;6.03;;;;;;;6.39;100.00;103901.38;5045947;28;20236;-75
2023/02/12 06:11:57;;;;;;;6.28;5.78;;;;;;;6.37;100.00;103900.44;5040716;28;20216;-75
2023/02/12 06:14:23;;;;;;;6.90;6.32;;;;;;;6.36;100.00;103904.78;5034011;28;20098;-75
2023/02/12 06:16:50;;;;;;;7.13;6.35;;;;;;;6.37;100.00;103903.03;5060082;28;20041;-75
2023/02/12 06:19:16;;;;;;;6.60;6.00;;;;;;;6.35;100.00;103897.81;5048583;28;20040;-75
2023/02/12 06:21:42;;;;;;;8.15;7.35;;;;;;;6.34;100.00;103896.91;5040055;28;20328;-75
2023/02/12 06:24:10;;;;;;;8.55;7.75;;;;;;;6.34;100.00;103902.13;5040417;28;20047;-75
2023/02/12 06:26:36;;;;;;;8.80;8.00;;;;;;;6.36;100.00;103898.69;5039750;28;20037;-75
2023/02/12 06:29:01;;;;;;;8.10;7.30;;;;;;;6.36;100.00;103898.69;5048403;28;20332;-75
2023/02/12 06:31:29;;;;;;;8.93;8.10;;;;;;;6.35;100.00;103892.63;5056478;28;20045;-75
2023/02/12 06:33:58;;;;;;;9.20;8.30;;;;;;;6.34;100.00;103891.72;5048839;28;20057;-75
2023/02/12 06:36:23;;;;;;;;;;;;;;;6.33;100.00;103899.47;5039536;28;20071;-75
2023/02/12 06:38:49;;;;;;;9.10;8.10;;;;;;;6.33;100.00;103900.38;5055344;28;20224;-75
2023/02/12 06:41:15;;;;;;;8.50;7.70;;;;;;;6.32;100.00;103903.81;5059172;28;20032;-75
2023/02/12 06:43:41;;;;;;;9.20;8.30;;;;;;;6.32;100.00;103898.59;5044489;28;20045;-75
2023/02/12 06:46:07;;;;;;;9.98;8.98;;;;;;;6.32;100.00;103902.94;5039767;28;20036;-75
2023/02/12 06:48:33;;;;;;;10.52;8.90;;;;;;;6.32;100.00;103900.34;5050507;28;20045;-75
2023/02/12 06:51:11;;;;;;;9.85;8.88;;;;;;;6.31;100.00;103902.06;5039696;28;20071;-75
2023/02/12 06:53:37;;;;;;;9.85;8.80;;;;;;;6.31;100.00;103904.66;5051393;28;20043;-75
2023/02/12 06:56:11;;;;;;;9.48;8.55;;;;;;;6.30;100.00;103910.72;5059592;28;20032;-75
2023/02/12 06:58:38;;;;;;;10.13;9.13;;;;;;;6.30;100.00;103913.31;5046683;28;20041;-75
2023/02/12 07:01:16;;;;;;;9.38;8.48;;;;;;;6.30;100.00;103913.31;5058892;28;20036;-75
2023/02/12 07:03:43;;;;;;;9.45;8.65;;;;;;;6.28;100.00;103912.38;5033546;28;20053;-75
2023/02/12 07:06:09;;;;;;;10.05;9.15;;;;;;;6.29;100.00;103913.25;5039236;28;20048;-75
2023/02/12 07:08:34;;;;;;;10.63;9.55;;;;;;;6.29;100.00;103921.06;5049397;28;20112;-75
2023/02/12 07:11:00;;;;;;;12.80;10.45;;;;;;;6.28;100.00;103928.00;5058985;28;20056;-75
2023/02/12 07:13:25;;;;;;;9.60;8.70;;;;;;;6.28;100.00;103927.13;5048882;28;20049;-75
2023/02/12 07:15:51;;;;;;;11.10;10.00;;;;;;;6.28;100.00;103934.94;5038706;28;20300;-75
2023/02/12 07:18:16;;;;;;;10.60;9.60;;;;;;;6.27;100.00;103925.34;5043705;28;20275;-75
2023/02/12 07:20:41;;;;;;;9.90;8.90;;;;;;;6.26;100.00;103932.28;5049355;28;20108;-75
2023/02/12 07:23:10;;;;;;;10.00;9.10;;;;;;;6.28;100.00;103938.41;5039031;28;20033;-75
2023/02/12 07:25:37;;;;;;;10.00;9.10;;;;;;;6.28;100.00;103937.53;5037972;28;20037;-75
2023/02/12 07:28:02;;;;;;;10.13;9.23;;;;;;;6.27;100.00;103939.25;5043871;28;20088;-75
2023/02/12 07:30:28;;;;;;;10.02;9.13;;;;;;;6.28;100.00;103945.34;5058152;28;20122;-75
2023/02/12 07:32:53;;;;;;;10.75;9.05;;;;;;;6.27;100.00;103941.84;5045054;28;20247;-75
2023/02/12 07:35:19;;;;;;;9.25;8.45;;;;;;;6.27;100.00;103940.97;5038048;28;20045;-75
2023/02/12 07:37:44;;;;;;;10.60;8.90;;;;;;;6.27;100.00;103941.84;5041025;28;20064;-75
2023/02/12 07:40:10;;;;;;;10.02;9.13;;;;;;;6.27;100.00;103954.00;5052731;28;20037;-75
2023/02/12 07:42:35;;;;;;;9.00;8.10;;;;;;;6.27;100.00;103951.38;5038936;28;20049;-75
2023/02/12 07:45:00;;;;;;;8.82;7.93;;;;;;;6.27;100.00;103948.78;5041731;28;20096;-75
2023/02/12 07:47:26;;;;;;;9.02;8.07;;;;;;;6.27;100.00;103949.66;5051339;28;20070;-75
2023/02/12 07:49:51;;;;;;;9.38;8.38;;;;;;;6.27;100.00;103954.00;5041903;28;20047;-75
2023/02/12 07:52:17;;;;;;;9.00;8.20;;;;;;;6.26;100.00;103958.31;5058057;28;20068;-75
2023/02/12 07:54:42;;;;;;;9.95;9.05;;;;;;;6.26;100.00;103950.50;5055930;28;20040;-75
2023/02/12 07:57:07;;;;;;;9.77;8.77;;;;;;;6.26;100.00;103953.13;5044009;28;20055;-75
2023/02/12 07:59:33;;;;;;;9.98;8.98;;;;;;;6.24;100.00;103949.59;5049401;28;20099;-75
2023/02/12 08:01:59;;;;;;;8.88;8.07;;;;;;;6.26;100.00;103957.44;5044427;28;20198;-75
2023/02/12 08:04:25;;;;;;;9.52;8.52;;;;;;;6.26;100.00;103954.84;5039100;28;20341;-75
2023/02/12 08:06:53;;;;;;;10.05;9.05;;;;;;;6.27;100.00;103959.19;5043123;28;20049;-75
2023/02/12 08:09:24;;;;;;;8.70;7.90;;;;;;;6.27;100.00;103964.41;5039945;28;20049;-75
2023/02/12 08:11:50;;;;;;;9.15;8.25;;;;;;;6.28;100.00;103963.56;5046258;28;20048;-75
2023/02/12 08:14:19;;;;;;;9.70;8.70;;;;;;;6.28;100.00;103961.84;5033611;28;20037;-75
2023/02/12 08:16:46;;;;;;;9.63;8.73;;;;;;;6.28;100.00;103951.44;5036560;28;20025;-75
2023/02/12 08:19:12;;;;;;;10.32;9.32;;;;;;;6.28;100.00;103959.25;5039715;28;20037;-75
2023/02/12 08:21:37;;;;;;;9.00;8.20;;;;;;;6.29;100.00;103962.72;5057309;28;20056;-75
2023/02/12 08:24:03;;;;;;;9.10;8.20;;;;;;;6.29;100.00;103958.41;5054138;28;20041;-75
2023/02/12 08:26:31;;;;;;;9.82;8.80;;;;;;;6.30;100.00;103960.16;5037667;28;20143;-75
2023/02/12 08:29:01;;;;;;;9.55;8.43;;;;;;;6.30;100.00;103962.75;5039324;28;20048;-75
2023/02/12 08:31:29;;;;;;;9.10;8.20;;;;;;;6.30;100.00;103967.09;5037470;28;20104;-75
2023/02/12 08:33:55;;;;;;;10.20;8.85;;;;;;;6.30;100.00;103970.56;5037949;28;20044;-75
2023/02/12 08:36:27;;;;;;;9.82;8.82;;;;;;;6.30;100.00;103970.56;5036998;28;20088;-75
2023/02/12 08:38:53;;;;;;;10.23;8.90;;;;;;;6.32;100.00;103970.63;5036985;28;20045;-75
2023/02/12 08:41:22;;;;;;;9.13;8.18;;;;;;;6.32;100.00;103974.09;5039373;28;20045;-75
2023/02/12 08:43:49;;;;;;;9.77;8.63;;;;;;;6.34;100.00;103979.34;5036038;28;20098;-75
2023/02/12 08:46:17;;;;;;;9.30;7.95;;;;;;;6.36;100.00;103980.28;5022987;28;20079;-75
2023/02/12 08:48:44;;;;;;;12.40;8.68;;;;;;;6.37;100.00;103976.84;5032771;28;20276;-75
2023/02/12 08:51:12;;;;;;;9.70;8.70;;;;;;;6.38;100.00;103977.72;5035251;28;20048;-75
2023/02/12 08:53:39;;;;;;;11.70;9.60;;;;;;;6.38;100.00;103980.31;5033362;28;20236;-75
2023/02/12 08:56:08;;;;;;;11.27;9.77;;;;;;;6.35;100.00;103983.72;5037801;28;20117;-75
2023/02/12 08:58:34;;;;;;;10.00;8.85;;;;;;;6.36;100.00;103982.88;5034555;28;20049;-75
2023/02/12 09:01:00;;;;;;;10.35;9.25;;;;;;;6.38;100.00;103989.00;5033499;28;20052;-75
2023/02/12 09:03:26;;;;;;;9.50;8.60;;;;;;;6.40;100.00;103984.72;5032809;28;20136;-75
2023/02/12 09:05:52;;;;;;;9.55;8.55;;;;;;;6.40;100.00;103995.13;5036282;28;20079;-75
2023/02/12 09:08:17;;;;;;;11.82;10.52;;;;;;;6.40;100.00;103991.66;5036132;28;20080;-75
2023/02/12 09:10:43;;;;;;;13.15;10.43;;;;;;;6.37;100.00;103994.16;5038320;28;20029;-75
2023/02/12 09:13:10;;;;;;;11.90;10.52;;;;;;;6.37;100.00;103992.47;5037388;28;20035;-75
2023/02/12 09:15:40;;;;;;;14.82;10.80;;;;;;;6.38;100.00;103993.34;5032230;28;20041;-75
2023/02/12 09:18:05;;;;;;;13.60;10.50;;;;;;;6.32;96.76;104000.13;5034691;28;20056;-75
2023/02/12 09:20:31;;;;;;;11.80;9.55;;;;;;;6.35;97.47;104004.56;5033910;28;20037;-75
2023/02/12 09:22:57;;;;;;;11.30;10.10;;;;;;;6.37;97.93;104002.88;5018154;28;20293;-75
2023/02/12 09:25:23;;;;;;;14.63;10.93;;;;;;;6.39;98.41;104001.19;5036227;28;20034;-75
2023/02/12 09:27:48;;;;;;;10.43;9.40;;;;;;;6.42;98.54;104005.59;5029971;28;20048;-76
2023/02/12 09:30:14;;;;;;;11.80;10.35;;;;;;;6.38;96.19;104009.81;5035173;28;20048;-75
2023/02/12 09:32:39;;;;;;;12.82;10.73;;;;;;;6.39;95.99;104010.72;5040437;28;20034;-75
2023/02/12 09:35:05;;;;;;;10.43;9.02;;;;;;;6.40;96.43;104010.75;5031856;28;20052;-74
2023/02/12 09:37:30;;;;;;;10.15;9.13;;;;;;;6.42;96.85;104014.31;5038119;28;20045;-74
2023/02/12 09:39:56;;;;;;;15.93;11.30;;;;;;;6.44;97.22;104007.41;5037751;28;20037;-75
2023/02/12 09:43:01;;;;;;;13.90;11.05;;;;;;;6.45;97.07;104001.34;5037475;28;20350;-75
2023/02/12 09:45:32;;;;;;;11.93;9.88;;;;;;;6.46;97.25;104008.31;5039200;28;20045;-75
2023/02/12 09:48:27;;;;;;;12.80;9.10;;;;;;;6.47;97.14;104009.19;5037768;28;20041;-75
2023/02/12 09:50:59;;;;;;;19.40;10.57;;;;;;;6.47;96.56;104006.59;5031683;28;20045;-75
2023/02/12 09:53:29;;;;;;;12.63;10.10;;;;;;;6.45;95.25;104005.69;5037350;28;20033;-75
2023/02/12 09:55:55;;;;;;;12.73;10.32;;;;;;;6.47;95.66;104006.59;5028923;28;20040;-75
2023/02/12 09:58:30;;;;;;;11.55;9.68;;;;;;;6.48;95.87;104009.25;5037704;28;20029;-75
2023/02/12 10:00:55;;;;;;;11.32;10.00;;;;;;;6.48;95.31;104004.03;5046355;28;20127;-75
2023/02/12 10:03:21;;;;;;;12.68;9.65;;;;;;;6.50;95.43;104004.09;5043815;28;20065;-75
2023/02/12 10:05:57;;;;;;;9.52;8.52;;;;;;;6.51;95.63;104004.13;5039121;28;20033;-75
2023/02/12 10:09:00;;;;;;;17.17;9.70;;;;;;;6.49;94.24;104003.22;5046184;28;20049;-75
2023/02/12 10:11:46;;;;;;;13.70;10.52;;;;;;;6.51;94.26;103998.03;5050221;28;20108;-75
2023/02/12 10:14:56;;;;;;;12.40;9.63;;;;;;;6.52;94.17;104005.00;5058166;28;20036;-75
2023/02/12 10:17:42;;;;;;;11.70;8.50;;;;;;;6.54;94.27;104003.31;5045065;28;20029;-75
2023/02/12 10:20:17;;;;;;;13.52;9.95;;;;;;;6.56;94.72;104005.97;5039342;28;20029;-75
2023/02/12 10:22:53;;;;;;;16.08;10.20;;;;;;;6.56;94.28;104006.84;5037591;28;20045;-75
2023/02/12 10:25:48;;;;;;;13.70;10.55;;;;;;;6.54;92.83;103998.13;5034824;28;20037;-75
2023/02/12 10:28:23;;;;;;;12.65;9.82;;;;;;;6.53;91.65;103999.84;5035384;28;20048;-75
2023/02/12 10:30:54;;;;;;;10.10;9.18;;;;;;;6.56;92.35;104001.63;5008434;28;20224;-75
2023/02/12 10:33:42;;;;;;;12.95;9.75;;;;;;;6.58;92.55;104007.75;5036168;28;20099;-75
2023/02/12 10:36:15;;;;;;;23.40;10.57;;;;;;;6.61;92.63;104010.47;5020980;28;20080;-75
2023/02/12 10:38:48;;;;;;;11.57;9.82;;;;;;;6.62;92.87;104006.13;5034529;28;20622;-75
2023/02/12 10:41:15;;;;;;;11.77;8.55;;;;;;;6.64;93.07;104000.13;5038149;28;20037;-75
2023/02/12 10:43:41;;;;;;;10.63;9.25;;;;;;;6.65;93.16;104001.88;5039762;28;20595;-75
2023/02/12 10:46:13;;;;;;;13.75;10.70;;;;;;;6.66;92.44;104002.78;5034977;28;20048;-75
2023/02/12 10:48:40;;;;;;;16.90;11.32;;;;;;;6.64;91.45;104002.72;5045983;28;20052;-75
2023/02/12 10:51:06;;;;;;;13.18;10.48;;;;;;;6.65;90.04;104006.22;5055488;28;20040;-75
2023/02/12 10:53:31;;;;;;;15.10;11.45;;;;;;;6.65;89.90;104001.88;5038340;28;20132;-75
2023/02/12 10:56:16;;;;;;;15.65;11.05;;;;;;;6.66;89.89;104008.84;5035324;28;20232;-75
2023/02/12 10:58:53;;;;;;;14.57;11.07;;;;;;;6.65;89.08;104007.09;5050689;28;20040;-75
2023/02/12 11:01:29;;;;;;;14.68;11.65;;;;;;;6.67;88.88;104001.91;5051713;28;20427;-75
2023/02/12 11:03:57;;;;;;;14.98;11.52;;;;;;;6.67;89.24;104005.41;5027615;28;20072;-76
2023/02/12 11:06:28;;;;;;;13.18;9.77;;;;;;;6.69;89.71;104008.94;5033303;28;20044;-75
2023/02/12 11:08:54;;;;;;;17.63;11.63;;;;;;;6.70;89.79;104004.63;5041123;28;20268;-75
2023/02/12 11:11:32;;;;;;;12.15;10.77;;;;;;;6.71;90.01;104003.75;5054815;28;20255;-75
2023/02/12 11:14:06;;;;;;;14.10;10.95;;;;;;;6.73;90.40;104000.38;5036070;28;20037;-75
2023/02/12 11:16:50;;;;;;;12.73;11.23;;;;;;;6.73;90.13;103999.47;5036929;28;20251;-75
2023/02/12 11:19:30;;;;;;;17.30;10.85;;;;;;;6.73;89.71;104000.38;5051620;28;20478;-75
2023/02/12 11:22:06;;;;;;;16.80;10.63;;;;;;;6.73;88.21;103996.84;5056924;28;20135;-75
2023/02/12 11:24:34;;;;;;;15.07;10.10;;;;;;;6.73;88.50;103995.16;5039414;28;20088;-75
2023/02/12 11:27:15;;;;;;;10.25;8.70;;;;;;;6.76;88.86;103999.56;5039858;28;20072;-75
2023/02/12 11:29:43;;;;;;;13.77;9.77;;;;;;;6.76;88.48;104007.38;5057270;28;20385;-75
2023/02/12 11:32:15;;;;;;;16.10;10.30;;;;;;;6.78;89.33;104002.19;5055446;28;20040;-75
2023/02/12 11:34:40;;;;;;;14.63;10.32;;;;;;;6.78;89.43;103997.88;5056809;28;20048;-75
2023/02/12 11:37:16;;;;;;;14.15;9.82;;;;;;;6.77;88.29;103998.72;5051945;28;20128;-75
2023/02/12 11:39:46;;;;;;;14.98;9.88;;;;;;;6.77;88.68;103995.22;5037020;28;20075;-75
2023/02/12 11:42:17;;;;;;;11.93;9.95;;;;;;;6.79;88.90;103996.16;5038319;28;20029;-75
2023/02/12 11:44:49;;;;;;;13.82;10.77;;;;;;;6.78;88.20;103994.38;5051971;28;20438;-75
2023/02/12 11:47:26;;;;;;;17.27;10.90;;;;;;;6.79;88.14;103991.81;5056271;28;20040;-75